createdAt,value
2023-05-01T00:00:39.104Z,0.00
2023-05-01T00:01:39.406Z,0.00
2023-05-01T00:02:39.859Z,0.00
2023-05-01T00:03:40.283Z,0.00
2023-05-01T00:04:40.542Z,0.00
2023-05-01T00:05:40.849Z,0.00
2023-05-01T00:06:41.285Z,0.00
2023-05-01T00:07:41.562Z,0.00
2023-05-01T00:08:41.845Z,0.00
2023-05-01T00:09:42.230Z,0.00
2023-05-01T00:10:42.574Z,0.00
2023-05-01T00:11:42.913Z,0.00
2023-05-01T00:12:43.266Z,0.00
2023-05-01T00:13:43.613Z,0.00
2023-05-01T00:14:43.954Z,0.00
2023-05-01T00:15:44.374Z,0.00
2023-05-01T00:16:44.690Z,0.00
2023-05-01T00:17:45.066Z,0.00
2023-05-01T00:18:45.380Z,0.00
2023-05-01T00:19:45.731Z,0.00
2023-05-01T00:20:46.136Z,0.00
2023-05-01T00:21:46.433Z,0.00
2023-05-01T00:22:46.757Z,0.00
2023-05-01T00:23:47.103Z,0.00
2023-05-01T00:24:47.434Z,0.00
2023-05-01T00:25:47.808Z,0.00
2023-05-01T00:26:48.164Z,0.00
2023-05-01T00:27:48.510Z,0.00
2023-05-01T00:28:48.893Z,0.00
2023-05-01T00:29:49.193Z,0.00
2023-05-01T00:30:49.570Z,0.00
2023-05-01T00:31:50.028Z,0.00
2023-05-01T00:32:50.305Z,0.00
2023-05-01T00:33:50.611Z,0.00
2023-05-01T00:34:50.976Z,0.00
2023-05-01T00:35:51.332Z,0.00
2023-05-01T00:36:51.672Z,0.00
2023-05-01T00:37:52.027Z,0.00
2023-05-01T00:38:52.389Z,0.00
2023-05-01T00:39:52.728Z,0.00
2023-05-01T00:40:53.071Z,0.00
2023-05-01T00:41:53.433Z,0.00
2023-05-01T00:42:53.768Z,0.00
2023-05-01T00:43:54.102Z,0.00
2023-05-01T00:44:54.458Z,0.00
2023-05-01T00:45:54.873Z,0.00
2023-05-01T00:46:55.165Z,0.00
2023-05-01T00:47:55.622Z,0.00
2023-05-01T00:48:55.843Z,0.00
2023-05-01T00:49:56.613Z,0.00
2023-05-01T00:50:56.611Z,0.00
2023-05-01T00:51:56.925Z,0.00
2023-05-01T00:52:57.295Z,0.00
2023-05-01T00:53:57.666Z,0.00
2023-05-01T00:54:57.969Z,0.00
2023-05-01T00:55:58.375Z,0.00
2023-05-01T00:56:58.679Z,0.00
2023-05-01T00:57:59.022Z,0.00
2023-05-01T00:58:59.393Z,0.00
2023-05-01T00:59:59.728Z,0.00
2023-05-01T01:01:00.201Z,0.00
2023-05-01T01:02:00.406Z,0.00
2023-05-01T01:03:00.801Z,0.00
2023-05-01T01:04:01.177Z,0.00
2023-05-01T01:05:01.480Z,0.00
2023-05-01T01:06:01.912Z,0.00
2023-05-01T01:07:02.175Z,0.00
2023-05-01T01:08:02.528Z,0.00
2023-05-01T01:09:02.855Z,0.00
2023-05-01T01:10:03.220Z,0.00
2023-05-01T01:11:03.601Z,0.00
2023-05-01T01:12:04.030Z,0.00
2023-05-01T01:13:04.280Z,0.00
2023-05-01T01:14:04.624Z,0.00
2023-05-01T01:15:04.970Z,0.00
2023-05-01T01:16:05.336Z,0.00
2023-05-01T01:17:05.814Z,0.00
2023-05-01T01:18:06.150Z,0.00
2023-05-01T01:19:06.373Z,0.00
2023-05-01T01:20:06.734Z,0.00
2023-05-01T01:21:07.118Z,0.00
2023-05-01T01:22:07.411Z,0.00
2023-05-01T01:23:07.756Z,0.00
2023-05-01T01:24:08.099Z,0.00
2023-05-01T01:25:08.446Z,0.00
2023-05-01T01:26:08.791Z,0.00
2023-05-01T01:27:09.133Z,0.00
2023-05-01T01:28:09.467Z,0.00
2023-05-01T01:29:09.830Z,0.00
2023-05-01T01:30:10.181Z,0.00
2023-05-01T01:31:10.600Z,0.00
2023-05-01T01:32:10.853Z,0.00
2023-05-01T01:33:11.180Z,0.00
2023-05-01T01:34:11.537Z,0.00
2023-05-01T01:35:11.893Z,0.00
2023-05-01T01:36:12.306Z,0.00
2023-05-01T01:37:12.572Z,0.00
2023-05-01T01:38:12.926Z,0.00
2023-05-01T01:39:13.282Z,0.00
2023-05-01T01:40:13.617Z,0.00
2023-05-01T01:41:13.997Z,0.00
2023-05-01T01:42:14.343Z,0.00
2023-05-01T01:43:14.690Z,0.00
2023-05-01T01:44:15.070Z,0.00
2023-05-01T01:45:15.393Z,0.00
2023-05-01T01:46:15.815Z,0.00
2023-05-01T01:47:16.076Z,0.00
2023-05-01T01:48:16.478Z,0.00
2023-05-01T01:49:18.534Z,0.00
2023-05-01T01:50:17.146Z,0.00
2023-05-01T01:51:17.464Z,0.00
2023-05-01T01:52:17.803Z,0.00
2023-05-01T01:53:18.236Z,0.00
2023-05-01T01:54:18.520Z,0.00
2023-05-01T01:55:18.872Z,0.00
2023-05-01T01:56:19.239Z,0.00
2023-05-01T01:57:19.579Z,0.00
2023-05-01T01:58:19.944Z,0.00
2023-05-01T01:59:20.284Z,0.00
2023-05-01T02:00:20.683Z,0.00
2023-05-01T02:01:21.012Z,0.00
2023-05-01T02:02:21.307Z,0.00
2023-05-01T02:03:21.752Z,0.00
2023-05-01T02:04:21.981Z,0.00
2023-05-01T02:05:22.316Z,0.00
2023-05-01T02:06:22.743Z,0.00
2023-05-01T02:07:23.011Z,0.00
2023-05-01T02:08:23.360Z,0.00
2023-05-01T02:09:23.716Z,0.00
2023-05-01T02:10:24.055Z,0.00
2023-05-01T02:11:24.423Z,0.00
2023-05-01T02:12:24.817Z,0.00
2023-05-01T02:13:25.107Z,0.00
2023-05-01T02:14:25.474Z,0.00
2023-05-01T02:15:25.792Z,0.00
2023-05-01T02:16:26.174Z,0.00
2023-05-01T02:17:26.587Z,0.00
2023-05-01T02:18:26.874Z,0.00
2023-05-01T02:19:27.244Z,0.00
2023-05-01T02:20:27.581Z,0.00
2023-05-01T02:21:27.975Z,0.00
2023-05-01T02:22:28.320Z,0.00
2023-05-01T02:23:28.661Z,0.00
2023-05-01T02:24:28.977Z,0.00
2023-05-01T02:25:29.710Z,0.00
2023-05-01T02:26:29.729Z,0.00
2023-05-01T02:27:30.041Z,0.00
2023-05-01T02:28:30.395Z,0.00
2023-05-01T02:29:30.756Z,0.00
2023-05-01T02:30:31.085Z,0.00
2023-05-01T02:31:31.539Z,0.00
2023-05-01T02:32:31.833Z,0.00
2023-05-01T02:33:32.218Z,0.00
2023-05-01T02:34:32.487Z,0.00
2023-05-01T02:35:32.828Z,0.00
2023-05-01T02:36:33.197Z,0.00
2023-05-01T02:37:33.523Z,0.00
2023-05-01T02:38:33.904Z,0.00
2023-05-01T02:39:34.218Z,0.00
2023-05-01T02:40:34.566Z,0.00
2023-05-01T02:41:34.971Z,0.00
2023-05-01T02:42:35.255Z,0.00
2023-05-01T02:43:35.586Z,0.00
2023-05-01T02:44:35.950Z,0.00
2023-05-01T02:45:36.313Z,0.00
2023-05-01T02:46:36.684Z,0.00
2023-05-01T02:47:37.023Z,0.00
2023-05-01T02:48:37.332Z,0.00
2023-05-01T02:49:37.668Z,0.00
2023-05-01T02:50:38.007Z,0.00
2023-05-01T02:51:38.370Z,0.00
2023-05-01T02:52:38.721Z,0.00
2023-05-01T02:53:39.065Z,0.00
2023-05-01T02:54:39.410Z,0.00
2023-05-01T02:55:39.763Z,0.00
2023-05-01T02:56:40.126Z,0.00
2023-05-01T02:57:40.479Z,0.00
2023-05-01T02:58:40.821Z,0.00
2023-05-01T02:59:41.211Z,0.00
2023-05-01T03:00:41.551Z,0.00
2023-05-01T03:01:42.028Z,0.00
2023-05-01T03:02:42.342Z,0.00
2023-05-01T03:03:42.743Z,0.00
2023-05-01T03:04:43.084Z,0.00
2023-05-01T03:05:43.322Z,0.00
2023-05-01T03:06:43.579Z,0.00
2023-05-01T03:07:43.801Z,0.00
2023-05-01T03:08:44.083Z,0.00
2023-05-01T03:09:44.385Z,0.00
2023-05-01T03:10:44.662Z,0.00
2023-05-01T03:11:44.975Z,0.00
2023-05-01T03:12:45.110Z,0.00
2023-05-01T03:13:45.414Z,0.00
2023-05-01T03:14:45.689Z,0.00
2023-05-01T03:15:45.998Z,0.00
2023-05-01T03:16:46.351Z,0.00
2023-05-01T03:17:46.574Z,0.00
2023-05-01T03:18:46.817Z,0.00
2023-05-01T03:19:47.096Z,0.00
2023-05-01T03:20:47.372Z,0.00
2023-05-01T03:21:47.703Z,0.00
2023-05-01T03:22:47.965Z,0.00
2023-05-01T03:23:48.265Z,0.00
2023-05-01T03:24:48.454Z,0.00
2023-05-01T03:25:48.719Z,0.00
2023-05-01T03:26:49.013Z,0.00
2023-05-01T03:27:49.277Z,0.00
2023-05-01T03:28:49.435Z,0.00
2023-05-01T03:29:49.756Z,0.00
2023-05-01T03:30:50.124Z,0.00
2023-05-01T03:31:50.431Z,0.00
2023-05-01T03:32:50.662Z,0.00
2023-05-01T03:33:50.904Z,0.00
2023-05-01T03:34:51.117Z,0.00
2023-05-01T03:35:51.244Z,0.00
2023-05-01T03:36:51.543Z,0.00
2023-05-01T03:37:51.808Z,0.00
2023-05-01T03:38:52.124Z,0.00
2023-05-01T03:39:52.296Z,5.62
2023-05-01T03:40:52.452Z,5.62
2023-05-01T03:41:52.682Z,5.62
2023-05-01T03:42:52.895Z,5.62
2023-05-01T03:43:53.202Z,5.62
2023-05-01T03:44:53.367Z,5.62
2023-05-01T03:45:53.690Z,5.62
2023-05-01T03:46:54.004Z,11.25
2023-05-01T03:47:54.228Z,11.25
2023-05-01T03:48:54.296Z,11.25
2023-05-01T03:49:54.656Z,11.25
2023-05-01T03:50:54.640Z,11.25
2023-05-01T03:51:54.985Z,11.25
2023-05-01T03:52:55.126Z,16.88
2023-05-01T03:53:55.299Z,16.88
2023-05-01T03:54:55.465Z,16.88
2023-05-01T03:55:55.656Z,16.88
2023-05-01T03:56:55.841Z,22.50
2023-05-01T03:57:55.991Z,22.50
2023-05-01T03:58:56.274Z,22.50
2023-05-01T03:59:56.720Z,28.12
2023-05-01T04:00:56.610Z,28.12
2023-05-01T04:01:56.841Z,28.12
2023-05-01T04:02:57.202Z,33.75
2023-05-01T04:03:57.173Z,33.75
2023-05-01T04:04:57.295Z,33.75
2023-05-01T04:05:57.686Z,39.38
2023-05-01T04:06:57.791Z,39.38
2023-05-01T04:07:58.053Z,45.00
2023-05-01T04:08:58.271Z,45.00
2023-05-01T04:09:58.518Z,50.62
2023-05-01T04:10:58.721Z,50.62
2023-05-01T04:11:58.945Z,50.62
2023-05-01T04:12:59.046Z,56.25
2023-05-01T04:13:59.245Z,56.25
2023-05-01T04:14:59.398Z,61.88
2023-05-01T04:15:59.608Z,61.88
2023-05-01T04:16:59.733Z,61.88
2023-05-01T04:18:00.036Z,67.50
2023-05-01T04:19:00.340Z,73.12
2023-05-01T04:20:00.486Z,73.12
2023-05-01T04:21:00.782Z,78.75
2023-05-01T04:22:00.984Z,78.75
2023-05-01T04:23:01.153Z,84.38
2023-05-01T04:24:01.298Z,84.38
2023-05-01T04:25:01.594Z,84.38
2023-05-01T04:26:01.771Z,84.38
2023-05-01T04:27:02.024Z,90.00
2023-05-01T04:28:02.183Z,90.00
2023-05-01T04:29:02.314Z,95.62
2023-05-01T04:30:02.502Z,95.62
2023-05-01T04:31:02.696Z,101.25
2023-05-01T04:32:02.992Z,101.25
2023-05-01T04:33:03.235Z,106.88
2023-05-01T04:34:03.475Z,112.50
2023-05-01T04:35:04.233Z,112.50
2023-05-01T04:36:03.923Z,118.12
2023-05-01T04:37:04.334Z,123.75
2023-05-01T04:38:04.408Z,123.75
2023-05-01T04:39:04.702Z,123.75
2023-05-01T04:40:05.008Z,129.38
2023-05-01T04:41:05.314Z,135.00
2023-05-01T04:42:05.501Z,135.00
2023-05-01T04:43:05.685Z,135.00
2023-05-01T04:44:06.030Z,140.62
2023-05-01T04:45:06.177Z,146.25
2023-05-01T04:46:06.420Z,146.25
2023-05-01T04:47:06.807Z,151.88
2023-05-01T04:48:07.041Z,151.88
2023-05-01T04:49:07.142Z,151.88
2023-05-01T04:50:07.317Z,157.50
2023-05-01T04:51:07.528Z,163.12
2023-05-01T04:52:07.701Z,174.38
2023-05-01T04:53:07.885Z,180.00
2023-05-01T04:54:08.153Z,174.38
2023-05-01T04:55:08.457Z,180.00
2023-05-01T04:56:08.765Z,185.62
2023-05-01T04:57:08.981Z,185.62
2023-05-01T04:58:09.132Z,196.88
2023-05-01T04:59:09.429Z,202.50
2023-05-01T05:00:09.799Z,202.50
2023-05-01T05:01:10.030Z,202.50
2023-05-01T05:02:10.252Z,202.50
2023-05-01T05:03:10.567Z,208.12
2023-05-01T05:04:10.697Z,213.75
2023-05-01T05:05:10.900Z,213.75
2023-05-01T05:06:11.250Z,208.12
2023-05-01T05:07:11.492Z,202.50
2023-05-01T05:08:11.663Z,191.25
2023-05-01T05:09:11.839Z,185.62
2023-05-01T05:10:12.155Z,185.62
2023-05-01T05:11:12.345Z,185.62
2023-05-01T05:12:12.658Z,185.62
2023-05-01T05:13:12.936Z,180.00
2023-05-01T05:14:13.267Z,180.00
2023-05-01T05:15:13.508Z,180.00
2023-05-01T05:16:13.770Z,180.00
2023-05-01T05:17:14.021Z,174.38
2023-05-01T05:18:14.246Z,180.00
2023-05-01T05:19:14.500Z,180.00
2023-05-01T05:20:14.676Z,180.00
2023-05-01T05:21:14.886Z,180.00
2023-05-01T05:22:15.074Z,180.00
2023-05-01T05:23:15.304Z,180.00
2023-05-01T05:24:15.408Z,180.00
2023-05-01T05:25:15.582Z,180.00
2023-05-01T05:26:15.754Z,180.00
2023-05-01T05:27:15.985Z,180.00
2023-05-01T05:28:16.253Z,180.00
2023-05-01T05:29:16.404Z,180.00
2023-05-01T05:30:16.735Z,180.00
2023-05-01T05:31:17.032Z,185.62
2023-05-01T05:32:17.312Z,185.62
2023-05-01T05:33:17.576Z,191.25
2023-05-01T05:34:17.694Z,196.88
2023-05-01T05:35:17.860Z,196.88
2023-05-01T05:36:18.180Z,202.50
2023-05-01T05:37:18.366Z,202.50
2023-05-01T05:38:18.592Z,208.12
2023-05-01T05:39:18.838Z,202.50
2023-05-01T05:40:19.027Z,202.50
2023-05-01T05:41:19.324Z,202.50
2023-05-01T05:42:19.515Z,208.12
2023-05-01T05:43:19.706Z,208.12
2023-05-01T05:44:19.869Z,208.12
2023-05-01T05:45:20.171Z,208.12
2023-05-01T05:46:20.596Z,208.12
2023-05-01T05:47:20.689Z,208.12
2023-05-01T05:48:21.036Z,208.12
2023-05-01T05:49:21.139Z,213.75
2023-05-01T05:50:21.474Z,213.75
2023-05-01T05:51:21.613Z,213.75
2023-05-01T05:52:21.937Z,213.75
2023-05-01T05:53:24.320Z,219.38
2023-05-01T05:54:22.296Z,219.38
2023-05-01T05:55:22.616Z,219.38
2023-05-01T05:56:22.788Z,225.00
2023-05-01T05:57:22.978Z,225.00
2023-05-01T05:58:23.394Z,225.00
2023-05-01T05:59:23.327Z,230.62
2023-05-01T06:00:23.525Z,230.62
2023-05-01T06:01:23.735Z,236.25
2023-05-01T06:02:24.129Z,236.25
2023-05-01T06:03:24.439Z,236.25
2023-05-01T06:04:24.380Z,241.88
2023-05-01T06:05:24.627Z,241.88
2023-05-01T06:06:24.890Z,247.50
2023-05-01T06:07:25.052Z,247.50
2023-05-01T06:08:25.217Z,247.50
2023-05-01T06:09:25.513Z,253.12
2023-05-01T06:10:25.684Z,253.12
2023-05-01T06:11:25.987Z,253.12
2023-05-01T06:12:26.180Z,258.75
2023-05-01T06:13:26.458Z,258.75
2023-05-01T06:14:26.784Z,258.75
2023-05-01T06:15:27.078Z,264.38
2023-05-01T06:16:27.368Z,270.00
2023-05-01T06:17:27.565Z,270.00
2023-05-01T06:18:27.845Z,275.62
2023-05-01T06:19:28.139Z,275.62
2023-05-01T06:20:28.351Z,281.25
2023-05-01T06:21:28.518Z,286.88
2023-05-01T06:22:28.857Z,286.88
2023-05-01T06:23:29.006Z,286.88
2023-05-01T06:24:29.201Z,286.88
2023-05-01T06:25:29.476Z,286.88
2023-05-01T06:26:29.777Z,286.88
2023-05-01T06:27:29.985Z,292.50
2023-05-01T06:28:30.128Z,292.50
2023-05-01T06:29:30.314Z,292.50
2023-05-01T06:30:30.505Z,292.50
2023-05-01T06:31:30.709Z,298.12
2023-05-01T06:32:30.941Z,298.12
2023-05-01T06:33:31.072Z,298.12
2023-05-01T06:34:31.285Z,303.75
2023-05-01T06:35:31.446Z,303.75
2023-05-01T06:36:31.639Z,303.75
2023-05-01T06:37:31.856Z,309.38
2023-05-01T06:38:32.005Z,309.38
2023-05-01T06:39:32.194Z,315.00
2023-05-01T06:40:32.379Z,315.00
2023-05-01T06:41:32.569Z,315.00
2023-05-01T06:42:32.785Z,315.00
2023-05-01T06:43:32.933Z,315.00
2023-05-01T06:44:33.130Z,320.62
2023-05-01T06:45:33.326Z,320.62
2023-05-01T06:46:33.562Z,320.62
2023-05-01T06:47:33.704Z,320.62
2023-05-01T06:48:33.840Z,320.62
2023-05-01T06:49:34.004Z,320.62
2023-05-01T06:50:34.213Z,326.25
2023-05-01T06:51:34.396Z,326.25
2023-05-01T06:52:34.610Z,320.62
2023-05-01T06:53:34.847Z,320.62
2023-05-01T06:54:34.943Z,320.62
2023-05-01T06:55:35.933Z,320.62
2023-05-01T06:56:35.315Z,320.62
2023-05-01T06:57:35.526Z,320.62
2023-05-01T06:58:35.679Z,320.62
2023-05-01T06:59:35.868Z,320.62
2023-05-01T07:00:36.097Z,320.62
2023-05-01T07:01:36.288Z,320.62
2023-05-01T07:02:36.547Z,320.62
2023-05-01T07:03:36.671Z,315.00
2023-05-01T07:04:36.791Z,315.00
2023-05-01T07:05:36.967Z,315.00
2023-05-01T07:06:37.267Z,315.00
2023-05-01T07:07:38.918Z,315.00
2023-05-01T07:08:37.551Z,315.00
2023-05-01T07:09:37.726Z,315.00
2023-05-01T07:10:39.272Z,309.38
2023-05-01T07:11:38.115Z,309.38
2023-05-01T07:12:38.404Z,309.38
2023-05-01T07:13:38.540Z,309.38
2023-05-01T07:14:38.670Z,303.75
2023-05-01T07:15:38.934Z,303.75
2023-05-01T07:16:39.068Z,303.75
2023-05-01T07:17:39.333Z,303.75
2023-05-01T07:18:39.439Z,303.75
2023-05-01T07:19:39.614Z,303.75
2023-05-01T07:20:39.874Z,303.75
2023-05-01T07:21:40.014Z,303.75
2023-05-01T07:22:40.242Z,303.75
2023-05-01T07:23:40.368Z,303.75
2023-05-01T07:24:40.554Z,298.12
2023-05-01T07:25:40.769Z,298.12
2023-05-01T07:26:40.952Z,298.12
2023-05-01T07:27:41.182Z,298.12
2023-05-01T07:28:41.307Z,298.12
2023-05-01T07:29:41.528Z,298.12
2023-05-01T07:30:41.669Z,303.75
2023-05-01T07:31:41.906Z,303.75
2023-05-01T07:32:42.129Z,303.75
2023-05-01T07:33:42.242Z,303.75
2023-05-01T07:34:42.433Z,303.75
2023-05-01T07:35:42.630Z,303.75
2023-05-01T07:36:42.790Z,309.38
2023-05-01T07:37:43.011Z,309.38
2023-05-01T07:38:43.172Z,309.38
2023-05-01T07:39:43.371Z,315.00
2023-05-01T07:40:43.544Z,315.00
2023-05-01T07:41:43.748Z,320.62
2023-05-01T07:42:43.969Z,320.62
2023-05-01T07:43:44.095Z,320.62
2023-05-01T07:44:44.292Z,326.25
2023-05-01T07:45:44.507Z,326.25
2023-05-01T07:46:44.655Z,326.25
2023-05-01T07:47:44.893Z,326.25
2023-05-01T07:48:45.050Z,331.88
2023-05-01T07:49:45.231Z,337.50
2023-05-01T07:50:45.425Z,348.75
2023-05-01T07:51:45.672Z,354.38
2023-05-01T07:52:45.855Z,360.00
2023-05-01T07:53:45.970Z,360.00
2023-05-01T07:54:46.163Z,365.62
2023-05-01T07:55:46.362Z,371.25
2023-05-01T07:56:48.587Z,376.88
2023-05-01T07:57:46.757Z,382.50
2023-05-01T07:58:46.934Z,382.50
2023-05-01T07:59:47.125Z,382.50
2023-05-01T08:00:47.317Z,382.50
2023-05-01T08:01:47.504Z,382.50
2023-05-01T08:02:47.756Z,388.12
2023-05-01T08:03:50.259Z,388.12
2023-05-01T08:04:48.105Z,388.12
2023-05-01T08:05:48.259Z,382.50
2023-05-01T08:06:48.486Z,376.88
2023-05-01T08:07:48.713Z,365.62
2023-05-01T08:08:48.839Z,360.00
2023-05-01T08:09:49.035Z,348.75
2023-05-01T08:10:49.218Z,343.12
2023-05-01T08:11:49.403Z,337.50
2023-05-01T08:12:49.608Z,337.50
2023-05-01T08:13:49.768Z,326.25
2023-05-01T08:14:49.964Z,320.62
2023-05-01T08:15:50.187Z,315.00
2023-05-01T08:16:50.322Z,309.38
2023-05-01T08:17:50.676Z,309.38
2023-05-01T08:18:50.685Z,303.75
2023-05-01T08:19:50.860Z,298.12
2023-05-01T08:20:51.062Z,292.50
2023-05-01T08:21:51.271Z,292.50
2023-05-01T08:22:51.465Z,286.88
2023-05-01T08:23:51.576Z,286.88
2023-05-01T08:24:51.772Z,286.88
2023-05-01T08:25:51.966Z,281.25
2023-05-01T08:26:52.139Z,286.88
2023-05-01T08:27:52.356Z,281.25
2023-05-01T08:28:52.506Z,281.25
2023-05-01T08:29:52.693Z,281.25
2023-05-01T08:30:52.903Z,281.25
2023-05-01T08:31:53.137Z,281.25
2023-05-01T08:32:53.391Z,281.25
2023-05-01T08:33:53.459Z,281.25
2023-05-01T08:34:53.693Z,281.25
2023-05-01T08:35:53.872Z,281.25
2023-05-01T08:36:54.135Z,281.25
2023-05-01T08:37:54.240Z,281.25
2023-05-01T08:38:54.404Z,281.25
2023-05-01T08:39:54.717Z,281.25
2023-05-01T08:40:54.792Z,286.88
2023-05-01T08:41:54.929Z,286.88
2023-05-01T08:42:55.143Z,292.50
2023-05-01T08:43:55.281Z,292.50
2023-05-01T08:44:55.466Z,298.12
2023-05-01T08:45:55.648Z,303.75
2023-05-01T08:46:55.962Z,309.38
2023-05-01T08:47:56.048Z,315.00
2023-05-01T08:48:56.189Z,320.62
2023-05-01T08:49:56.636Z,326.25
2023-05-01T08:50:56.567Z,331.88
2023-05-01T08:51:56.730Z,343.12
2023-05-01T08:52:56.905Z,354.38
2023-05-01T08:53:57.073Z,354.38
2023-05-01T08:54:57.278Z,360.00
2023-05-01T08:55:57.460Z,365.62
2023-05-01T08:56:57.637Z,371.25
2023-05-01T08:57:57.822Z,376.88
2023-05-01T08:58:57.981Z,388.12
2023-05-01T08:59:58.436Z,399.38
2023-05-01T09:00:58.371Z,410.62
2023-05-01T09:01:58.584Z,427.50
2023-05-01T09:02:58.835Z,438.75
2023-05-01T09:03:59.059Z,450.00
2023-05-01T09:04:59.135Z,461.25
2023-05-01T09:05:59.488Z,461.25
2023-05-01T09:06:59.521Z,461.25
2023-05-01T09:07:59.709Z,466.88
2023-05-01T09:08:59.882Z,478.12
2023-05-01T09:10:00.126Z,483.75
2023-05-01T09:11:00.250Z,495.00
2023-05-01T09:12:00.450Z,495.00
2023-05-01T09:13:00.655Z,500.62
2023-05-01T09:14:00.841Z,511.88
2023-05-01T09:15:00.962Z,517.50
2023-05-01T09:16:01.287Z,528.75
2023-05-01T09:17:01.345Z,551.25
2023-05-01T09:18:03.603Z,691.88
2023-05-01T09:19:01.765Z,832.50
2023-05-01T09:20:01.969Z,866.25
2023-05-01T09:21:02.109Z,866.25
2023-05-01T09:22:02.834Z,894.38
2023-05-01T09:23:02.530Z,911.25
2023-05-01T09:24:02.688Z,928.12
2023-05-01T09:25:02.865Z,939.38
2023-05-01T09:26:03.068Z,922.50
2023-05-01T09:27:03.236Z,793.12
2023-05-01T09:28:03.460Z,731.25
2023-05-01T09:29:03.641Z,776.25
2023-05-01T09:30:03.918Z,815.62
2023-05-01T09:31:03.998Z,871.88
2023-05-01T09:32:04.198Z,933.75
2023-05-01T09:33:04.926Z,978.75
2023-05-01T09:34:04.526Z,956.25
2023-05-01T09:35:04.720Z,945.00
2023-05-01T09:36:04.913Z,995.62
2023-05-01T09:37:05.123Z,973.12
2023-05-01T09:38:05.344Z,990.00
2023-05-01T09:39:05.623Z,1018.12
2023-05-01T09:40:05.746Z,1068.75
2023-05-01T09:41:06.036Z,1113.75
2023-05-01T09:42:06.128Z,1215.00
2023-05-01T09:43:06.446Z,1181.25
2023-05-01T09:44:06.563Z,1203.75
2023-05-01T09:45:06.737Z,1231.88
2023-05-01T09:46:07.163Z,1215.00
2023-05-01T09:47:07.210Z,1220.62
2023-05-01T09:48:07.413Z,1254.38
2023-05-01T09:49:07.559Z,1288.12
2023-05-01T09:50:07.802Z,1310.62
2023-05-01T09:51:08.009Z,1378.12
2023-05-01T09:52:08.115Z,1389.38
2023-05-01T09:53:08.335Z,1411.88
2023-05-01T09:54:08.544Z,1406.25
2023-05-01T09:55:08.699Z,1411.88
2023-05-01T09:56:08.870Z,1411.88
2023-05-01T09:57:09.095Z,1406.25
2023-05-01T09:58:09.284Z,1440.00
2023-05-01T09:59:09.464Z,1440.00
2023-05-01T10:00:09.660Z,1524.38
2023-05-01T10:01:09.881Z,1569.38
2023-05-01T10:02:10.102Z,1546.88
2023-05-01T10:03:10.353Z,1530.00
2023-05-01T10:04:10.561Z,1591.88
2023-05-01T10:05:10.650Z,1732.50
2023-05-01T10:06:10.914Z,1642.50
2023-05-01T10:07:11.046Z,1580.62
2023-05-01T10:08:11.255Z,1552.50
2023-05-01T10:09:11.429Z,1659.38
2023-05-01T10:10:11.644Z,1681.88
2023-05-01T10:11:11.858Z,1738.12
2023-05-01T10:12:12.075Z,1749.38
2023-05-01T10:13:12.312Z,1771.88
2023-05-01T10:14:12.521Z,1783.12
2023-05-01T10:15:24.499Z,2401.88
2023-05-01T10:16:12.897Z,3155.62
2023-05-01T10:17:13.168Z,3279.38
2023-05-01T10:18:13.391Z,3161.25
2023-05-01T10:19:13.481Z,3116.25
2023-05-01T10:20:13.695Z,3476.25
2023-05-01T10:21:13.900Z,3442.50
2023-05-01T10:22:14.080Z,3465.00
2023-05-01T10:23:14.361Z,3442.50
2023-05-01T10:24:14.503Z,3268.12
2023-05-01T10:25:14.714Z,3240.00
2023-05-01T10:26:14.918Z,3166.88
2023-05-01T10:27:15.133Z,3088.12
2023-05-01T10:28:15.365Z,3048.75
2023-05-01T10:29:15.537Z,3048.75
2023-05-01T10:30:15.816Z,2857.50
2023-05-01T10:31:16.004Z,3071.25
2023-05-01T10:32:16.141Z,2986.88
2023-05-01T10:33:16.438Z,2986.88
2023-05-01T10:34:16.586Z,3121.88
2023-05-01T10:35:16.760Z,2975.62
2023-05-01T10:36:16.980Z,2913.75
2023-05-01T10:37:17.189Z,2992.50
2023-05-01T10:38:17.417Z,3223.12
2023-05-01T10:39:17.605Z,3211.88
2023-05-01T10:40:17.784Z,2812.50
2023-05-01T10:41:17.997Z,2452.50
2023-05-01T10:42:18.178Z,2356.88
2023-05-01T10:43:18.401Z,2514.38
2023-05-01T10:44:18.609Z,2570.62
2023-05-01T10:45:18.789Z,2368.12
2023-05-01T10:46:19.133Z,2283.75
2023-05-01T10:47:19.246Z,2131.88
2023-05-01T10:48:19.430Z,2261.25
2023-05-01T10:49:19.604Z,2334.38
2023-05-01T10:50:19.822Z,2480.62
2023-05-01T10:51:20.039Z,2688.75
2023-05-01T10:52:20.218Z,2823.75
2023-05-01T10:53:20.440Z,2801.25
2023-05-01T10:54:20.644Z,2615.62
2023-05-01T10:55:20.870Z,2671.88
2023-05-01T10:56:21.087Z,2863.12
2023-05-01T10:57:21.312Z,2806.88
2023-05-01T10:58:21.490Z,2615.62
2023-05-01T10:59:21.717Z,2615.62
2023-05-01T11:00:21.846Z,2610.00
2023-05-01T11:01:22.101Z,2632.50
2023-05-01T11:02:22.382Z,2576.25
2023-05-01T11:03:22.503Z,2559.38
2023-05-01T11:04:22.679Z,2503.12
2023-05-01T11:05:35.797Z,2497.50
2023-05-01T11:06:23.142Z,2615.62
2023-05-01T11:07:23.294Z,2306.25
2023-05-01T11:08:23.481Z,2334.38
2023-05-01T11:09:23.648Z,2345.62
2023-05-01T11:10:23.841Z,2227.50
2023-05-01T11:11:24.031Z,2019.38
2023-05-01T11:12:24.214Z,2188.12
2023-05-01T11:13:24.449Z,2424.38
2023-05-01T11:14:24.606Z,2750.62
2023-05-01T11:15:24.823Z,2958.75
2023-05-01T11:16:25.063Z,2818.12
2023-05-01T11:17:25.276Z,2947.50
2023-05-01T11:18:25.451Z,3093.75
2023-05-01T11:19:26.841Z,2947.50
2023-05-01T11:20:25.844Z,2525.62
2023-05-01T11:21:26.043Z,2418.75
2023-05-01T11:22:26.214Z,2379.38
2023-05-01T11:23:26.470Z,2615.62
2023-05-01T11:24:26.620Z,2475.00
2023-05-01T11:25:26.838Z,2525.62
2023-05-01T11:26:27.049Z,2548.12
2023-05-01T11:27:27.255Z,2851.88
2023-05-01T11:28:27.502Z,2896.88
2023-05-01T11:29:27.683Z,2874.38
2023-05-01T11:30:27.910Z,2688.75
2023-05-01T11:31:28.157Z,2666.25
2023-05-01T11:32:28.353Z,2745.00
2023-05-01T11:33:28.531Z,2705.62
2023-05-01T11:34:28.713Z,2778.75
2023-05-01T11:35:28.924Z,2970.00
2023-05-01T11:36:29.142Z,2941.88
2023-05-01T11:37:29.358Z,2790.00
2023-05-01T11:38:29.565Z,2655.00
2023-05-01T11:39:29.735Z,2728.12
2023-05-01T11:40:29.953Z,2863.12
2023-05-01T11:41:30.131Z,2806.88
2023-05-01T11:42:30.365Z,2936.25
2023-05-01T11:43:30.596Z,3301.88
2023-05-01T11:44:30.779Z,3380.62
2023-05-01T11:45:31.064Z,3493.12
2023-05-01T11:46:31.365Z,3138.75
2023-05-01T11:47:31.408Z,3161.25
2023-05-01T11:48:31.635Z,2784.38
2023-05-01T11:49:31.827Z,2261.25
2023-05-01T11:50:32.024Z,1271.25
2023-05-01T11:51:32.233Z,950.62
2023-05-01T11:52:32.432Z,900.00
2023-05-01T11:53:32.664Z,855.00
2023-05-01T11:54:32.855Z,832.50
2023-05-01T11:55:33.029Z,815.62
2023-05-01T11:56:33.229Z,798.75
2023-05-01T11:57:33.414Z,793.12
2023-05-01T11:58:33.670Z,894.38
2023-05-01T11:59:33.815Z,2216.25
2023-05-01T12:00:34.129Z,3234.38
2023-05-01T12:01:34.247Z,3273.75
2023-05-01T12:02:34.509Z,3369.38
2023-05-01T12:03:34.738Z,3448.12
2023-05-01T12:04:35.003Z,3375.00
2023-05-01T12:05:35.050Z,2165.62
2023-05-01T12:06:35.267Z,1327.50
2023-05-01T12:07:35.463Z,1406.25
2023-05-01T12:08:35.715Z,1591.88
2023-05-01T12:09:35.901Z,1659.38
2023-05-01T12:10:36.138Z,1479.38
2023-05-01T12:11:36.317Z,1698.75
2023-05-01T12:12:36.535Z,1681.88
2023-05-01T12:13:36.769Z,1541.25
2023-05-01T12:14:36.983Z,1513.12
2023-05-01T12:15:37.159Z,1608.75
2023-05-01T12:16:37.449Z,1732.50
2023-05-01T12:17:37.704Z,1794.38
2023-05-01T12:18:37.775Z,1800.00
2023-05-01T12:19:37.952Z,1743.75
2023-05-01T12:20:38.174Z,1783.12
2023-05-01T12:21:38.355Z,1856.25
2023-05-01T12:22:38.587Z,1878.75
2023-05-01T12:23:38.811Z,1861.88
2023-05-01T12:24:38.959Z,1878.75
2023-05-01T12:25:39.161Z,1974.38
2023-05-01T12:26:39.369Z,1968.75
2023-05-01T12:27:39.567Z,1895.62
2023-05-01T12:28:39.849Z,1766.25
2023-05-01T12:29:39.999Z,1586.25
2023-05-01T12:30:40.215Z,1636.88
2023-05-01T12:31:40.445Z,1597.50
2023-05-01T12:32:40.650Z,1507.50
2023-05-01T12:33:40.809Z,1513.12
2023-05-01T12:34:40.991Z,1428.75
2023-05-01T12:35:41.193Z,1423.12
2023-05-01T12:36:41.412Z,1428.75
2023-05-01T12:37:41.610Z,1423.12
2023-05-01T12:38:41.850Z,1496.25
2023-05-01T12:39:42.037Z,1591.88
2023-05-01T12:40:42.283Z,1625.62
2023-05-01T12:41:42.483Z,1873.12